createdAt,value
2019-01-27T00:03:11.224Z,20.30
2019-01-27T00:07:14.962Z,19.60
2019-01-27T00:11:18.623Z,19.20
2019-01-27T00:15:22.566Z,17.67
2019-01-27T00:19:26.626Z,17.30
2019-01-27T00:23:29.999Z,18.93
2019-01-27T00:27:33.290Z,18.57
2019-01-27T00:31:36.586Z,19.87
2019-01-27T00:35:40.348Z,18.50
2019-01-27T00:39:43.645Z,18.00
2019-01-27T00:43:47.445Z,17.30
2019-01-27T00:47:51.177Z,19.10
2019-01-27T00:51:54.924Z,13.60
2019-01-27T00:55:58.239Z,17.13
2019-01-27T01:00:01.960Z,17.10
2019-01-27T01:04:05.651Z,17.30
2019-01-27T01:08:09.110Z,16.03
2019-01-27T01:12:12.915Z,16.87
2019-01-27T01:16:16.883Z,15.50
2019-01-27T01:20:20.993Z,14.40
2019-01-27T01:24:24.732Z,14.80
2019-01-27T01:28:28.458Z,15.83
2019-01-27T01:32:32.066Z,15.37
2019-01-27T01:36:35.826Z,18.17
2019-01-27T01:40:39.638Z,15.90
2019-01-27T01:44:42.934Z,15.00
2019-01-27T01:48:46.746Z,14.70
2019-01-27T01:52:50.110Z,15.63
2019-01-27T01:56:53.866Z,14.07
2019-01-27T02:00:57.243Z,16.27
2019-01-27T02:05:00.535Z,16.47
2019-01-27T02:09:07.826Z,14.37
2019-01-27T02:13:11.550Z,13.40
2019-01-27T02:17:15.301Z,13.93
2019-01-27T02:21:19.270Z,15.67
2019-01-27T02:25:22.578Z,15.47
2019-01-27T02:29:26.599Z,17.43
2019-01-27T02:33:30.330Z,16.07
2019-01-27T02:37:33.683Z,18.23
2019-01-27T02:41:36.986Z,16.83
2019-01-27T02:45:40.334Z,18.60
2019-01-27T02:49:44.074Z,16.73
2019-01-27T02:53:47.372Z,17.00
2019-01-27T02:57:51.086Z,16.57
2019-01-27T03:01:54.827Z,17.63
2019-01-27T03:06:04.171Z,16.50
2019-01-27T03:10:13.061Z,14.83
2019-01-27T03:14:17.161Z,16.00
2019-01-27T03:18:20.459Z,14.43
2019-01-27T03:22:23.754Z,14.87
2019-01-27T03:26:27.294Z,15.60
2019-01-27T03:30:30.944Z,15.53
2019-01-27T03:34:34.230Z,14.53
2019-01-27T03:38:38.238Z,16.23
2019-01-27T03:42:41.538Z,16.73
2019-01-27T03:46:45.318Z,17.77
2019-01-27T03:50:48.612Z,14.10
2019-01-27T03:54:51.910Z,15.57
2019-01-27T03:58:55.201Z,15.33
2019-01-27T04:02:58.600Z,15.07
2019-01-27T04:07:01.874Z,15.43
2019-01-27T04:11:05.298Z,16.60
2019-01-27T04:15:08.765Z,15.27
2019-01-27T04:19:12.578Z,14.10
2019-01-27T04:23:16.323Z,14.10
2019-01-27T04:27:19.697Z,13.43
2019-01-27T04:31:23.426Z,14.47
2019-01-27T04:35:27.174Z,13.87
2019-01-27T04:39:30.600Z,13.63
2019-01-27T04:43:33.899Z,13.97
2019-01-27T04:47:37.490Z,15.00
2019-01-27T04:51:40.790Z,15.93
2019-01-27T04:55:44.093Z,15.60
2019-01-27T04:59:48.110Z,15.93
2019-01-27T05:04:01.922Z,15.20
2019-01-27T05:08:05.499Z,14.70
2019-01-27T05:12:09.243Z,14.77
2019-01-27T05:16:12.974Z,13.73
2019-01-27T05:20:16.334Z,18.13
2019-01-27T05:24:20.066Z,18.20
2019-01-27T05:28:23.363Z,17.13
2019-01-27T05:32:27.265Z,20.37
2019-01-27T05:36:30.554Z,20.60
2019-01-27T05:40:34.394Z,18.90
2019-01-27T05:44:38.386Z,17.30
2019-01-27T05:48:42.132Z,17.77
2019-01-27T05:52:45.430Z,18.77
2019-01-27T05:56:56.337Z,16.80
2019-01-27T06:00:54.196Z,16.63
2019-01-27T06:04:57.922Z,16.33
2019-01-27T06:09:01.752Z,18.37
2019-01-27T06:13:05.036Z,19.87
2019-01-27T06:17:08.780Z,15.80
2019-01-27T06:21:12.063Z,19.30
2019-01-27T06:25:16.540Z,16.87
2019-01-27T06:29:20.309Z,20.83
2019-01-27T06:33:41.954Z,15.40
2019-01-27T06:37:45.261Z,16.20
2019-01-27T06:41:50.611Z,14.20
2019-01-27T06:45:53.916Z,17.90
2019-01-27T06:49:57.654Z,16.87
2019-01-27T06:54:00.942Z,15.90
2019-01-27T06:58:04.514Z,16.00
2019-01-27T07:02:29.518Z,18.53
2019-01-27T07:06:58.114Z,15.13
2019-01-27T07:11:26.745Z,15.47
2019-01-27T07:15:39.882Z,13.83
2019-01-27T07:20:20.679Z,14.33
2019-01-27T07:24:42.135Z,13.70
2019-01-27T07:28:52.406Z,13.63
2019-01-27T07:33:14.186Z,12.40
2019-01-27T07:37:52.516Z,18.67
2019-01-27T07:42:33.774Z,14.60
2019-01-27T07:47:01.498Z,16.50
2019-01-27T07:51:27.146Z,14.87
2019-01-27T07:55:49.977Z,16.90
2019-01-27T08:00:04.246Z,17.63
2019-01-27T08:04:35.661Z,15.17
2019-01-27T08:08:58.490Z,16.93
2019-01-27T08:13:19.895Z,17.57
2019-01-27T08:17:31.203Z,25.47
2019-01-27T08:21:44.566Z,19.33
2019-01-27T08:26:10.481Z,18.30
2019-01-27T08:30:22.971Z,17.30
2019-01-27T08:34:33.174Z,17.30
2019-01-27T08:39:04.791Z,15.03
2019-01-27T08:43:33.770Z,14.70
2019-01-27T08:47:37.474Z,14.97
2019-01-27T08:51:41.190Z,16.00
2019-01-27T08:55:45.199Z,18.30
2019-01-27T08:59:48.486Z,17.20
2019-01-27T09:03:58.543Z,16.00
2019-01-27T09:08:11.378Z,14.60
2019-01-27T09:12:30.366Z,17.00
2019-01-27T09:16:59.959Z,15.70
2019-01-27T09:21:29.222Z,17.27
2019-01-27T09:25:44.271Z,19.03
2019-01-27T09:30:09.884Z,15.77
2019-01-27T09:34:42.190Z,16.40
2019-01-27T09:39:11.289Z,16.10
2019-01-27T09:43:42.939Z,20.07
2019-01-27T09:47:55.281Z,16.10
2019-01-27T09:52:16.798Z,10.77
2019-01-27T09:56:42.319Z,7.03
2019-01-27T10:00:59.264Z,5.47
2019-01-27T10:05:10.354Z,5.43
2019-01-27T10:09:32.210Z,6.07
2019-01-27T10:13:58.083Z,11.10
2019-01-27T10:18:19.550Z,8.23
2019-01-27T10:22:36.153Z,9.80
2019-01-27T10:26:53.072Z,7.27
2019-01-27T10:31:18.958Z,8.60
2019-01-27T10:35:42.550Z,7.87
2019-01-27T10:39:57.058Z,12.23
2019-01-27T10:44:25.678Z,10.17
2019-01-27T10:48:57.142Z,10.00
2019-01-27T10:53:20.917Z,12.47
2019-01-27T10:57:32.202Z,8.30
2019-01-27T11:01:46.479Z,9.57
2019-01-27T11:06:01.337Z,10.77
2019-01-27T11:10:24.086Z,9.67
2019-01-27T11:14:46.082Z,7.07
2019-01-27T11:18:55.395Z,8.83
2019-01-27T11:23:22.315Z,9.17
2019-01-27T11:27:36.606Z,7.13
2019-01-27T11:32:08.051Z,8.13
2019-01-27T11:36:20.670Z,8.60
2019-01-27T11:40:46.862Z,7.80
2019-01-27T11:44:58.006Z,10.50
2019-01-27T11:49:10.631Z,13.43
2019-01-27T11:53:13.936Z,10.40
2019-01-27T11:57:17.778Z,11.60
2019-01-27T12:01:21.057Z,10.73
2019-01-27T12:05:24.399Z,13.30
2019-01-27T12:09:27.699Z,14.93
2019-01-27T12:13:31.686Z,13.23
2019-01-27T12:17:34.982Z,19.67
2019-01-27T12:21:38.734Z,13.97
2019-01-27T12:25:42.470Z,13.00
2019-01-27T12:29:45.766Z,14.67
2019-01-27T12:33:49.359Z,13.43
2019-01-27T12:37:53.110Z,16.70
2019-01-27T12:41:56.412Z,11.00
2019-01-27T12:45:59.706Z,9.30
2019-01-27T12:50:03.318Z,5.93
2019-01-27T12:54:08.281Z,5.20
2019-01-27T12:58:11.758Z,5.57
2019-01-27T13:02:15.110Z,5.90
2019-01-27T13:06:18.846Z,2.13
2019-01-27T13:10:22.642Z,4.93
2019-01-27T13:14:26.392Z,6.63
2019-01-27T13:18:30.019Z,8.40
2019-01-27T13:22:33.562Z,6.93
2019-01-27T13:26:36.977Z,13.93
2019-01-27T13:30:40.370Z,11.73
2019-01-27T13:34:43.665Z,11.60
2019-01-27T13:38:51.129Z,9.90
2019-01-27T13:42:52.670Z,12.13
2019-01-27T13:46:56.507Z,6.47
2019-01-27T13:51:00.294Z,9.50
2019-01-27T13:55:05.220Z,11.47
2019-01-27T13:59:08.938Z,5.77
2019-01-27T14:03:12.305Z,11.43
2019-01-27T14:07:15.906Z,10.37
2019-01-27T14:11:19.618Z,15.70
2019-01-27T14:15:24.187Z,18.27
2019-01-27T14:19:27.482Z,9.33
2019-01-27T14:23:31.290Z,8.30
2019-01-27T14:27:34.664Z,13.97
2019-01-27T14:31:38.396Z,11.20
2019-01-27T14:35:42.218Z,11.40
2019-01-27T14:39:45.515Z,12.80
2019-01-27T14:43:49.318Z,7.30
2019-01-27T14:47:53.052Z,12.27
2019-01-27T14:51:56.497Z,8.03
2019-01-27T14:55:59.826Z,11.23
2019-01-27T15:00:03.170Z,7.33
2019-01-27T15:04:06.474Z,6.43
2019-01-27T15:08:09.764Z,12.70
2019-01-27T15:12:13.904Z,4.70
2019-01-27T15:16:17.234Z,13.00
2019-01-27T15:20:23.677Z,12.70
2019-01-27T15:24:26.975Z,6.30
2019-01-27T15:28:30.697Z,11.40
2019-01-27T15:32:33.994Z,7.87
2019-01-27T15:36:38.075Z,8.37
2019-01-27T15:40:42.342Z,4.07
2019-01-27T15:44:46.086Z,12.23
2019-01-27T15:48:49.527Z,7.63
2019-01-27T15:52:53.541Z,10.70
2019-01-27T15:56:56.894Z,7.03
2019-01-27T16:01:00.994Z,7.93
2019-01-27T16:05:07.608Z,8.33
2019-01-27T16:09:11.022Z,11.50
2019-01-27T16:13:14.627Z,6.47
2019-01-27T16:17:17.927Z,10.50
2019-01-27T16:21:21.211Z,6.10
2019-01-27T16:25:24.498Z,4.63
2019-01-27T16:29:47.778Z,6.30
2019-01-27T16:33:56.236Z,7.00
2019-01-27T16:37:59.710Z,9.40
2019-01-27T16:42:03.654Z,7.77
2019-01-27T16:46:07.015Z,5.73
2019-01-27T16:50:16.208Z,8.77
2019-01-27T16:54:20.452Z,6.53
2019-01-27T16:58:23.751Z,6.27
2019-01-27T17:02:27.466Z,5.33
2019-01-27T17:06:30.774Z,3.83
2019-01-27T17:10:34.221Z,9.97
2019-01-27T17:14:37.521Z,6.00
2019-01-27T17:18:44.603Z,4.60
2019-01-27T17:22:48.494Z,2.40
2019-01-27T17:26:51.797Z,10.77
2019-01-27T17:30:56.525Z,9.00
2019-01-27T17:35:00.374Z,3.63
2019-01-27T17:39:09.632Z,4.90
2019-01-27T17:43:11.434Z,8.30
2019-01-27T17:47:15.234Z,7.23
2019-01-27T17:51:18.526Z,10.07
2019-01-27T17:55:41.722Z,2.63
2019-01-27T17:59:54.998Z,5.83
2019-01-27T18:04:04.662Z,6.70
2019-01-27T18:08:12.116Z,6.50
2019-01-27T18:12:24.278Z,13.23
2019-01-27T18:16:28.030Z,6.77
2019-01-27T18:20:31.324Z,8.83
2019-01-27T18:24:35.066Z,15.27
2019-01-27T18:28:38.365Z,21.83
2019-01-27T18:32:41.667Z,10.13
2019-01-27T18:36:45.029Z,5.30
2019-01-27T18:40:50.321Z,9.37
2019-01-27T18:44:53.718Z,4.73
2019-01-27T18:48:57.471Z,4.37
2019-01-27T18:53:13.306Z,5.93
2019-01-27T18:57:22.674Z,10.60
2019-01-27T19:01:36.190Z,8.13
2019-01-27T19:05:47.534Z,19.23
2019-01-27T19:10:03.609Z,5.67
2019-01-27T19:14:22.474Z,19.47
2019-01-27T19:18:44.943Z,8.40
2019-01-27T19:22:59.900Z,12.80
2019-01-27T19:27:15.719Z,10.70
2019-01-27T19:31:30.770Z,11.37
2019-01-27T19:35:45.888Z,14.53
2019-01-27T19:39:58.943Z,11.17
2019-01-27T19:44:20.803Z,12.33
2019-01-27T19:48:46.878Z,9.03
2019-01-27T19:52:57.638Z,12.30
2019-01-27T19:57:21.238Z,11.30
2019-01-27T20:01:43.482Z,17.77
2019-01-27T20:05:59.120Z,12.50
2019-01-27T20:10:28.850Z,7.47
2019-01-27T20:14:54.539Z,11.30
2019-01-27T20:19:15.999Z,7.63
2019-01-27T20:23:37.940Z,19.17
2019-01-27T20:28:09.249Z,12.43
2019-01-27T20:32:30.889Z,8.30
2019-01-27T20:36:54.519Z,19.13
2019-01-27T20:41:10.792Z,10.13
2019-01-27T20:45:20.867Z,14.93
2019-01-27T20:49:42.779Z,11.70
2019-01-27T20:54:06.787Z,12.23
2019-01-27T20:58:20.406Z,11.40
2019-01-27T21:02:37.009Z,11.83
2019-01-27T21:06:48.126Z,10.63
2019-01-27T21:11:09.622Z,7.93
2019-01-27T21:15:44.553Z,7.70
2019-01-27T21:19:50.977Z,13.20
2019-01-27T21:23:54.278Z,10.60
2019-01-27T21:27:58.006Z,11.07
2019-01-27T21:32:01.749Z,15.87
2019-01-27T21:36:05.202Z,12.70
2019-01-27T21:40:15.877Z,15.00
2019-01-27T21:44:19.603Z,10.93
2019-01-27T21:48:23.730Z,10.43
2019-01-27T21:52:27.468Z,16.20
2019-01-27T21:56:30.773Z,7.03
2019-01-27T22:00:34.571Z,5.30
2019-01-27T22:04:37.871Z,8.10
2019-01-27T22:08:41.418Z,8.40
2019-01-27T22:12:45.210Z,9.67
2019-01-27T22:16:48.922Z,5.80
2019-01-27T22:20:52.658Z,10.80
2019-01-27T22:24:55.950Z,5.90
2019-01-27T22:28:59.682Z,5.67
2019-01-27T22:33:03.419Z,9.70
2019-01-27T22:37:06.702Z,10.40
2019-01-27T22:41:10.470Z,5.40
2019-01-27T22:45:15.122Z,9.00
2019-01-27T22:49:18.846Z,7.13
2019-01-27T22:53:22.214Z,4.67
2019-01-27T22:57:25.854Z,7.37
2019-01-27T23:01:29.734Z,14.07
2019-01-27T23:05:33.976Z,9.47
2019-01-27T23:09:37.695Z,7.63
2019-01-27T23:13:41.762Z,3.63
2019-01-27T23:17:45.491Z,10.77
2019-01-27T23:21:48.794Z,4.60
2019-01-27T23:25:52.783Z,8.57
2019-01-27T23:29:56.518Z,8.23
2019-01-27T23:33:59.811Z,9.80
2019-01-27T23:38:03.107Z,5.80
2019-01-27T23:42:06.406Z,7.50
2019-01-27T23:46:09.702Z,7.70
2019-01-27T23:50:14.941Z,7.90
2019-01-27T23:54:18.238Z,6.63
2019-01-27T23:58:22.030Z,8.17
